الصفحة الرئيسية
METAR-TAF:

METAR-TAF

مطار :

مطار انجمينا الدولي

انجمينا, تشاد

دائرة عرض: 12-08N, خط طول: 015-02E, ارتفاع: 295 متر

مراقبة الطقس الحالي

تاريخ ووقت الإصدار 1ساعة و 2 دقيقة قبل الساعة 11:00UTC
ريح 7 عقدةمن اتجاهات متغيرة
درجة الحرارة 39°درجة مئوية
الرطوبة 31%
ضغط 1010 hPa
الرؤية 10 كم أو أكثر
غيوم متفرقة على ارتفاع 4000 قدم

METAR: FTTJ 271100Z VRB07KT 9999 SCT040 39/19 Q1010 NOSIG

زمن: 13:02 (12:02 UTC)

توقعات

تاريخ ووقت الإصدار 49 دقيقة قبل الساعة 11:13UTC
التوقعات صالحة من27 الساعة 12 UTC إلى 28 الساعة 18 UTC
ريح 8 عقدة من الجنوب الغربي
الرؤية: 7000 متر
غيوم متفرقة على ارتفاع 4000 قدم
مؤقت
من 27 الساعة 14 UTC إلى 27 الساعة 20 UTC
الرؤية: 4000 متر
هبوب الغبار, عاصفة رعدية, مطر
أصبح
من 28 الساعة 06 UTC إلى 28 الساعة 12 UTC
ريح 10 عقدة من الغرب
نظرية الاحتمالات 40% :
مؤقت
من 28 الساعة 12 UTC إلى 28 الساعة 18 UTC
الرؤية: 3000 متر
عاصفة رعدية, مطر

TAF: FTTJ 271113Z 2712/2818 22008KT 7000 SCT040 PRO30 TEMPO 2714/2720 4000 BLDU TSRA BECMG 2806/2812 28010KT PROB40 TEMPO 2812/2818 3000 TSRA

أرصاد الطقس والتوقعات من أكثر من 4000 مطار (تقارير الطقس للمطار METAR والتنبؤ بالطقس بالمطارTAF).

المحطات المتاحة هي النقط الصفراء والحمراء على الخريطة.

حرك المؤشر فوق النقطة لمعرفة اسم المحطة.

ثم انقر لمعرفة أرصاد وتوقعات الطقس.

لتغيير الخارطة: اضغط على الأزرار الخضراء مع رمز الصليب الأسود للتكبير. على الزر الأخضر مع شرطة للتصغير، أو على الأسهم الخضراء للخرائط المجاورة.


METAR-TAF: